createdAt,value
2018-05-12T05:02:06.096Z,95244.55
2018-05-12T05:04:40.123Z,95245.13
2018-05-12T05:07:13.413Z,95243.81
2018-05-12T05:09:46.683Z,95242.34
2018-05-12T05:12:19.960Z,95240.89
2018-05-12T05:14:53.211Z,95237.86
2018-05-12T05:17:26.485Z,95238.86
2018-05-12T05:20:00.504Z,95233.72
2018-05-12T05:22:33.847Z,95232.27
2018-05-12T05:25:07.115Z,95230.11
2018-05-12T05:27:40.376Z,95231.68
2018-05-12T05:30:14.409Z,95234.95
2018-05-12T05:32:47.683Z,95231.45
2018-05-12T05:35:21.695Z,95228.64
2018-05-12T05:37:55.208Z,95231.32
2018-05-12T05:40:28.467Z,95235.06
2018-05-12T05:43:01.733Z,95236.29
2018-05-12T05:45:34.994Z,95239.56
2018-05-12T05:48:08.272Z,95236.57
2018-05-12T05:50:42.289Z,95239.36
2018-05-12T05:53:15.589Z,95237.27
2018-05-12T05:55:48.848Z,95250.41
2018-05-12T05:58:22.124Z,95241.12
2018-05-12T06:00:55.387Z,95245.61
2018-05-12T06:03:28.669Z,95245.73
2018-05-12T06:06:01.920Z,95242.41
2018-05-12T06:08:35.201Z,95251.97
2018-05-12T06:11:08.464Z,95240.93
2018-05-12T06:13:41.728Z,95239.39
2018-05-12T06:16:15.762Z,95232.01
2018-05-12T06:18:49.033Z,95233.38
2018-05-12T06:21:22.289Z,95233.43
2018-05-12T06:23:55.559Z,95232.95
2018-05-12T06:26:28.814Z,95229.28
2018-05-12T06:29:02.089Z,95232.50
2018-05-12T06:31:35.333Z,95233.48
2018-05-12T06:34:08.776Z,95232.01
2018-05-12T06:36:42.049Z,95231.50
2018-05-12T06:39:15.346Z,95226.27
2018-05-12T06:41:48.608Z,95225.30
2018-05-12T06:44:21.892Z,95223.97
2018-05-12T06:46:55.144Z,95222.09
2018-05-12T06:49:28.425Z,95222.89
2018-05-12T06:52:01.677Z,95221.91
2018-05-12T06:54:34.982Z,95225.48
2018-05-12T06:57:08.252Z,95227.21
2018-05-12T06:59:41.525Z,95219.22
2018-05-12T07:02:14.771Z,95224.25
2018-05-12T07:04:48.048Z,95220.50
2018-05-12T07:07:21.312Z,95218.84
2018-05-12T07:09:54.593Z,95211.52
2018-05-12T07:12:27.870Z,95211.62
2018-05-12T07:15:01.124Z,95214.75
2018-05-12T07:17:34.396Z,95214.69
2018-05-12T07:20:08.431Z,95220.40
2018-05-12T07:22:41.679Z,95220.49
2018-05-12T07:25:15.011Z,95218.08
2018-05-12T07:27:48.269Z,95219.99
2018-05-12T07:30:21.539Z,95218.67
2018-05-12T07:32:54.844Z,95212.31
2018-05-12T07:35:28.100Z,95213.81
2018-05-12T07:38:01.376Z,95208.86
2018-05-12T07:40:34.640Z,95209.48
2018-05-12T07:43:07.920Z,95208.13
2018-05-12T07:45:41.181Z,95210.50
2018-05-12T07:48:14.455Z,95206.95
2018-05-12T07:50:47.711Z,95211.87
2018-05-12T07:53:20.984Z,95207.47
2018-05-12T07:55:54.241Z,95207.78
2018-05-12T07:58:27.507Z,95208.14
2018-05-12T08:01:01.535Z,95205.75
2018-05-12T08:03:35.571Z,95207.34
2018-05-12T08:06:08.821Z,95204.41
2018-05-12T08:08:42.870Z,95206.87
2018-05-12T08:11:16.123Z,95195.47
2018-05-12T08:13:49.546Z,95194.15
2018-05-12T08:16:22.806Z,95195.09
2018-05-12T08:18:56.543Z,95193.48
2018-05-12T08:21:29.792Z,95189.81
2018-05-12T08:24:03.266Z,95190.52
2018-05-12T08:26:36.593Z,95193.61
2018-05-12T08:29:09.935Z,95190.59
2018-05-12T08:31:43.188Z,95187.12
2018-05-12T08:34:16.488Z,95191.95
2018-05-12T08:36:49.747Z,95191.89
2018-05-12T08:39:23.041Z,95184.10
2018-05-12T08:41:56.300Z,95184.66
2018-05-12T08:44:29.585Z,95177.86
2018-05-12T08:47:02.851Z,95167.11
2018-05-12T08:49:36.146Z,95168.79
2018-05-12T08:52:09.432Z,95174.86
2018-05-12T08:54:42.716Z,95173.39
2018-05-12T08:57:15.984Z,95169.18
2018-05-12T08:59:49.261Z,95178.84
2018-05-12T09:02:22.523Z,95172.61
2018-05-12T09:04:55.799Z,95164.26
2018-05-12T09:07:29.057Z,95171.08
2018-05-12T09:10:02.341Z,95170.08
2018-05-12T09:12:35.595Z,95170.42
2018-05-12T09:15:08.872Z,95165.48
2018-05-12T09:17:42.141Z,95155.97
2018-05-12T09:20:15.419Z,95162.47
2018-05-12T09:22:48.695Z,95166.36
2018-05-12T09:25:22.016Z,95155.47
2018-05-12T09:27:55.263Z,95151.75
2018-05-12T09:30:29.316Z,95151.25
2018-05-12T09:33:02.582Z,95149.67
2018-05-12T09:35:36.623Z,95146.10
2018-05-12T09:38:10.495Z,95142.64
2018-05-12T09:40:44.540Z,95141.09
2018-05-12T09:43:17.809Z,95125.66
2018-05-12T09:45:51.853Z,95138.11
2018-05-12T09:48:25.108Z,95142.62
2018-05-12T09:50:58.406Z,95124.91
2018-05-12T09:53:32.419Z,95128.34
2018-05-12T09:56:06.461Z,95125.03
2018-05-12T09:58:39.716Z,95120.85
2018-05-12T10:01:12.997Z,95120.34
2018-05-12T10:03:46.263Z,95120.25
2018-05-12T10:06:19.531Z,95123.64
2018-05-12T10:08:52.801Z,95122.11
2018-05-12T10:11:26.841Z,95117.27
2018-05-12T10:14:00.099Z,95109.28
2018-05-12T10:16:34.147Z,95114.20
2018-05-12T10:19:07.426Z,95110.70
2018-05-12T10:21:40.698Z,95111.11
2018-05-12T10:24:14.719Z,95105.42
2018-05-12T10:26:48.756Z,95105.69
2018-05-12T10:29:22.021Z,95093.26
2018-05-12T10:31:56.071Z,95101.14
2018-05-12T10:34:29.332Z,95093.81
2018-05-12T10:37:02.600Z,95097.23
2018-05-12T10:39:35.855Z,95089.53
2018-05-12T10:42:09.133Z,95076.08
2018-05-12T10:44:42.474Z,95087.73
2018-05-12T10:47:15.669Z,95078.91
2018-05-12T10:49:48.923Z,95073.86
2018-05-12T10:52:22.205Z,95077.77
2018-05-12T10:54:55.464Z,95070.32
2018-05-12T10:57:29.509Z,95062.47
2018-05-12T11:00:02.763Z,95055.17
2018-05-12T11:02:36.036Z,95051.41
2018-05-12T11:05:09.301Z,95051.61
2018-05-12T11:07:42.577Z,95049.84
2018-05-12T11:10:15.835Z,95044.56
2018-05-12T11:12:49.116Z,95039.81
2018-05-12T11:15:22.369Z,95030.02
2018-05-12T11:17:55.643Z,95026.48
2018-05-12T11:20:29.660Z,95033.93
2018-05-12T11:23:02.933Z,95031.07
2018-05-12T11:25:36.195Z,95025.38
2018-05-12T11:28:09.465Z,95017.66
2018-05-12T11:30:42.723Z,95013.81
2018-05-12T11:33:16.760Z,95012.84
2018-05-12T11:35:50.017Z,95004.48
2018-05-12T11:38:30.166Z,95001.34
2018-05-12T11:41:03.422Z,95004.33
2018-05-12T11:43:36.692Z,95000.23
2018-05-12T11:46:09.970Z,95004.17
2018-05-12T11:48:44.018Z,94992.48
2018-05-12T11:51:17.322Z,94980.14
2018-05-12T11:53:50.539Z,94984.20
2018-05-12T11:56:23.819Z,94980.91
2018-05-12T11:58:57.073Z,94984.38
2018-05-12T12:01:30.355Z,94978.61
2018-05-12T12:04:04.378Z,94968.83
2018-05-12T12:06:37.663Z,94966.98
2018-05-12T12:09:11.687Z,94966.92
2018-05-12T12:11:44.960Z,94960.30
2018-05-12T12:14:18.988Z,94959.98
2018-05-12T12:16:52.266Z,94961.36
2018-05-12T12:19:26.285Z,94954.71
2018-05-12T12:21:59.576Z,94947.37
2018-05-12T12:24:33.600Z,94948.55
2018-05-12T12:27:06.873Z,94941.59
2018-05-12T12:29:40.151Z,94941.73
2018-05-12T12:32:13.412Z,94938.50
2018-05-12T12:34:46.688Z,94929.73
2018-05-12T12:37:19.965Z,94923.64
2018-05-12T12:39:53.996Z,94924.10
2018-05-12T12:42:27.255Z,94917.81
2018-05-12T12:45:01.335Z,94907.66
2018-05-12T12:47:34.558Z,94918.30
2018-05-12T12:50:08.604Z,94907.39
2018-05-12T12:52:41.861Z,94910.37
2018-05-12T12:55:15.133Z,94906.53
2018-05-12T12:57:48.405Z,94905.81
2018-05-12T13:00:21.664Z,94906.83
2018-05-12T13:02:54.924Z,94900.67
2018-05-12T13:05:28.217Z,94897.02
2018-05-12T13:08:01.527Z,94893.08
2018-05-12T13:10:35.584Z,94892.48
2018-05-12T13:13:08.907Z,94886.22
2018-05-12T13:15:42.868Z,94884.39
2018-05-12T13:18:16.129Z,94882.99
2018-05-12T13:20:49.425Z,94879.14
2018-05-12T13:23:22.684Z,94877.44
2018-05-12T13:25:56.315Z,94877.84
2018-05-12T13:28:29.577Z,94875.01
2018-05-12T13:31:02.848Z,94867.12
2018-05-12T13:33:36.196Z,94865.47
2018-05-12T13:36:10.159Z,94856.29
2018-05-12T13:38:43.404Z,94856.95
2018-05-12T13:41:16.690Z,94853.43
2018-05-12T13:43:49.970Z,94863.31
2018-05-12T13:46:23.245Z,94860.66
2018-05-12T13:48:56.513Z,94853.06
2018-05-12T13:51:29.789Z,94851.89
2018-05-12T13:54:03.832Z,94848.87
2018-05-12T13:56:37.079Z,94848.56
2018-05-12T13:59:11.124Z,94852.83
2018-05-12T14:01:44.412Z,94844.38
2018-05-12T14:04:18.447Z,94846.06
2018-05-12T14:06:51.707Z,94839.11
2018-05-12T14:09:24.986Z,94827.38
2018-05-12T14:11:58.239Z,94827.06
2018-05-12T14:14:31.515Z,94819.53
2018-05-12T14:17:04.780Z,94815.14
2018-05-12T14:19:38.843Z,94811.88
2018-05-12T14:22:12.091Z,94807.37
2018-05-12T14:24:46.150Z,94805.89
2018-05-12T14:27:19.408Z,94802.98
2018-05-12T14:29:52.680Z,94801.29
2018-05-12T14:32:26.718Z,94799.80
2018-05-12T14:35:00.760Z,94791.48
2018-05-12T14:37:34.025Z,94799.25
2018-05-12T14:40:07.301Z,94799.72
2018-05-12T14:42:41.446Z,94793.11
2018-05-12T14:45:14.608Z,94786.52
2018-05-12T14:47:48.698Z,94773.25
2018-05-12T14:50:21.952Z,94776.92
2018-05-12T14:52:55.223Z,94774.44
2018-05-12T14:55:28.480Z,94780.33
2018-05-12T14:58:01.797Z,94772.17
2018-05-12T15:00:35.863Z,94772.26
2018-05-12T15:03:09.144Z,94773.67
2018-05-12T15:05:42.395Z,94772.00
2018-05-12T15:08:16.519Z,94768.86
2018-05-12T15:10:50.525Z,94765.13
2018-05-12T15:13:24.561Z,94758.20
2018-05-12T15:15:57.868Z,94764.38
2018-05-12T15:18:31.180Z,94756.00
2018-05-12T15:21:04.443Z,94756.72
2018-05-12T15:23:37.715Z,94757.03
2018-05-12T15:26:11.740Z,94765.58
2018-05-12T15:28:45.020Z,94759.22
2018-05-12T15:31:19.046Z,94756.47
2018-05-12T15:33:52.322Z,94756.38
2018-05-12T15:36:26.354Z,94753.98
2018-05-12T15:38:59.708Z,94747.36
2018-05-12T15:41:32.928Z,94749.00
2018-05-12T15:44:06.978Z,94748.23
2018-05-12T15:46:40.237Z,94753.41
2018-05-12T15:49:13.508Z,94753.32
2018-05-12T15:51:46.831Z,94747.13
2018-05-12T15:54:20.817Z,94739.61
2018-05-12T15:56:54.841Z,94740.84
2018-05-12T15:59:28.115Z,94739.32
2018-05-12T16:02:01.376Z,94741.03
2018-05-12T16:04:34.647Z,94735.81
2018-05-12T16:07:07.936Z,94736.33
2018-05-12T16:09:41.209Z,94729.61
2018-05-12T16:12:14.545Z,94728.41
2018-05-12T16:14:48.535Z,94727.33
2018-05-12T16:17:21.800Z,94730.83
2018-05-12T16:19:55.820Z,94729.48
2018-05-12T16:22:29.095Z,94730.89
2018-05-12T16:25:02.354Z,94725.52
2018-05-12T16:27:35.633Z,94727.52
2018-05-12T16:30:08.884Z,94722.94
2018-05-12T16:32:42.177Z,94721.25
2018-05-12T16:35:16.191Z,94719.95
2018-05-12T16:37:50.228Z,94710.25
2018-05-12T16:40:23.495Z,94718.50
2018-05-12T16:42:57.545Z,94726.99
2018-05-12T16:45:30.803Z,94719.37
2018-05-12T16:48:04.849Z,94720.17
2018-05-12T16:50:38.164Z,94724.50
2018-05-12T16:53:11.371Z,94718.87
2018-05-12T16:55:44.629Z,94717.84
2018-05-12T16:58:17.904Z,94718.86
2018-05-12T17:00:51.162Z,94712.98
2018-05-12T17:03:24.432Z,94716.36
2018-05-12T17:05:57.708Z,94717.39
2018-05-12T17:08:30.970Z,94711.83
2018-05-12T17:11:05.015Z,94712.05
2018-05-12T17:13:38.293Z,94708.69
2018-05-12T17:16:11.563Z,94704.73
2018-05-12T17:18:45.597Z,94701.66
2018-05-12T17:21:18.891Z,94700.70
2018-05-12T17:23:52.160Z,94704.37
2018-05-12T17:26:25.447Z,94698.60
2018-05-12T17:28:58.707Z,94692.17
2018-05-12T17:31:32.756Z,94695.52
2018-05-12T17:34:06.008Z,94694.18
2018-05-12T17:36:39.280Z,94686.52
2018-05-12T17:39:12.535Z,94690.27
2018-05-12T17:41:45.811Z,94688.36
2018-05-12T17:44:19.124Z,94693.28
2018-05-12T17:46:52.337Z,94694.18
2018-05-12T17:49:26.371Z,94689.62
2018-05-12T17:51:59.648Z,94693.91
2018-05-12T17:54:32.915Z,94701.25
2018-05-12T17:57:06.183Z,94694.48
2018-05-12T17:59:39.431Z,94699.89
2018-05-12T18:02:12.720Z,94696.84
2018-05-12T18:04:46.735Z,94694.04
2018-05-12T18:07:20.017Z,94697.86
2018-05-12T18:09:54.041Z,94691.60
2018-05-12T18:12:28.085Z,94691.61
2018-05-12T18:15:01.341Z,94692.95
2018-05-12T18:17:35.380Z,94686.86
2018-05-12T18:20:08.644Z,94687.98
2018-05-12T18:22:41.925Z,94685.96
2018-05-12T18:25:15.956Z,94691.66
2018-05-12T18:27:49.260Z,94689.31
2018-05-12T18:30:22.523Z,94688.42
2018-05-12T18:32:56.575Z,94688.36
2018-05-12T18:35:29.832Z,94687.03
2018-05-12T18:38:05.821Z,94684.07
2018-05-12T18:40:39.086Z,94687.61
2018-05-12T18:43:12.471Z,94686.63
2018-05-12T18:45:45.728Z,94689.05
2018-05-12T18:48:19.000Z,94685.48
2018-05-12T18:50:52.254Z,94687.63
2018-05-12T18:53:26.299Z,94688.20
2018-05-12T18:55:59.563Z,94688.35
2018-05-12T18:58:32.833Z,94695.11
2018-05-12T19:01:06.094Z,94704.31
2018-05-12T19:03:39.471Z,94704.86
2018-05-12T19:06:12.759Z,94712.41
2018-05-12T19:08:46.812Z,94712.58
2018-05-12T19:11:20.066Z,94710.52
2018-05-12T19:13:54.132Z,94716.13
2018-05-12T19:16:27.400Z,94720.34
2018-05-12T19:19:00.676Z,94721.77
2018-05-12T19:21:33.943Z,94724.75
2018-05-12T19:24:07.219Z,94727.67
2018-05-12T19:26:40.468Z,94726.93
2018-05-12T19:29:13.759Z,94730.09
2018-05-12T19:31:47.020Z,94730.95
2018-05-12T19:34:21.052Z,94720.81
2018-05-12T19:36:54.316Z,94727.22
2018-05-12T19:39:27.595Z,94717.14
2018-05-12T19:42:00.860Z,94723.89
2018-05-12T19:44:34.139Z,94714.88
2018-05-12T19:47:07.393Z,94705.85
2018-05-12T19:49:40.749Z,94713.30
2018-05-12T19:52:13.924Z,94706.04
2018-05-12T19:54:47.202Z,94706.44
2018-05-12T19:57:20.464Z,94707.55
2018-05-12T19:59:53.738Z,94708.92
2018-05-12T20:02:26.990Z,94708.36
2018-05-12T20:05:00.268Z,94711.63
2018-05-12T20:07:33.535Z,94707.50
2018-05-12T20:10:06.809Z,94709.63
2018-05-12T20:12:40.072Z,94705.63
2018-05-12T20:15:13.373Z,94702.26
2018-05-12T20:17:46.633Z,94702.52
2018-05-12T20:20:20.694Z,94699.53
2018-05-12T20:22:53.948Z,94696.67
2018-05-12T20:25:27.553Z,94690.95
2018-05-12T20:28:01.579Z,94686.75
2018-05-12T20:30:34.852Z,94682.83
2018-05-12T20:33:08.888Z,94681.42
2018-05-12T20:35:42.177Z,94678.19
2018-05-12T20:38:15.433Z,94675.58
2018-05-12T20:40:48.716Z,94678.64
2018-05-12T20:43:21.972Z,94677.98
2018-05-12T20:45:55.247Z,94682.23
2018-05-12T20:48:28.503Z,94684.04
2018-05-12T20:51:01.884Z,94686.83
2018-05-12T20:53:35.139Z,94690.19
2018-05-12T20:56:08.427Z,94694.38
2018-05-12T20:58:41.679Z,94687.23
2018-05-12T21:01:14.951Z,94689.23
2018-05-12T21:03:48.216Z,94684.48
2018-05-12T21:06:21.484Z,94678.89
2018-05-12T21:08:54.752Z,94688.45
2018-05-12T21:11:28.022Z,94682.02
2018-05-12T21:14:02.068Z,94684.58
2018-05-12T21:16:35.469Z,94680.80
2018-05-12T21:19:08.717Z,94681.20
2018-05-12T21:21:42.089Z,94681.05
2018-05-12T21:24:15.340Z,94682.15
2018-05-12T21:26:48.621Z,94678.05
2018-05-12T21:29:21.936Z,94678.19
2018-05-12T21:31:55.152Z,94680.05
2018-05-12T21:34:28.407Z,94674.40
2018-05-12T21:37:01.675Z,94673.06
2018-05-12T21:39:34.931Z,94672.44
2018-05-12T21:42:08.228Z,94680.97
2018-05-12T21:44:41.492Z,94684.38
2018-05-12T21:47:14.759Z,94678.69
2018-05-12T21:49:48.022Z,94673.78
2018-05-12T21:52:21.296Z,94666.52
2018-05-12T21:54:55.317Z,94666.79
2018-05-12T21:57:28.591Z,94665.58
2018-05-12T22:00:01.856Z,94662.23
2018-05-12T22:02:35.131Z,94664.42
2018-05-12T22:05:08.379Z,94668.52
2018-05-12T22:07:43.519Z,94669.89
2018-05-12T22:10:16.716Z,94673.72
2018-05-12T22:12:49.985Z,94664.79
2018-05-12T22:15:23.235Z,94656.66
2018-05-12T22:17:56.512Z,94665.87
2018-05-12T22:20:29.765Z,94663.43
2018-05-12T22:23:03.034Z,94662.88
2018-05-12T22:25:36.288Z,94659.25
2018-05-12T22:28:09.582Z,94657.87
